Accueil
METAR-TAF:

METAR-TAF

Aéroports :

Provincetown Municipal Airport

Provincetown, Massachusetts, États-Unis

latitude: 42-04N, longitude: 070-13W, altitude: 2 m

Observation

Le bulletin a été fait il y a 45 minutes, à 18:56 UTC
Vent 18 kt de ouest avec des rafales jusqu'à 23 kt
Température 9°C
Humidité 53%
Pression 988 hPa
Visibilité: 16.1 km
Ciel couvert à une hauteur de 7500 ft

METAR: KPVC 101856Z AUTO 26018G23KT 10SM OVC075 09/00 A2917 RMK AO2 SLP877 T00940000 PNO $

Heure: 15:41 (19:41 UTC)


TAF: absent

Observations et prévisions météorologiques de plus de 4000 aéroports (messages METAR et TAF).

Les stations disponibles sont représentées par des disques jaunes et rouges sur la carte.

Passer la souris dessus pour voir le nom de la station.

Cliquer dessus pour voir les observations et prévisions météorologiques.

Pour changer de carte: cliquez sur les boutons verts avec une croix noire pour zoomer, sur le bouton vert avec un tiret pour effectuer un zoom arrière, ou sur les flèches vertes pour les cartes adjacentes.


METAR-TAF: